Capitol Logistics 1132


EDDF
Frankfurt Rhein-Main
Frankfurt, DE
EBLG
Liège Airport
Liege, BE

Route Details

Aircraft Information
Primary: Boeing 737-800BCF
Backup: Not Available
Route Data
Distance: 125nm
Sched. Duration: 1h 00m
Avg. Duration: 0h 49m (-50m)
Times Flown: 7
Recm'd Route: Not Available
Planned Altitude: 24,000ft
Origin Wx: EDDF 200250Z VRB02KT CAVOK 03/02 Q1016 NOSIG
Dest. Wx: EBLG 200250Z 17011KT 140V200 CAVOK 11/05 Q1010 NOSIG
Notes:

Financial History
Total Freight: 253,442lbs
Average Load: 36,206lbs/flt
Fuel Used: 33,714lbs
Avg. Fuel Used: 4,816lbs/flt
Fuel Expense: $26,971
Avg. Fuel Expense: $3,853
Avg. Fuel Cost: $0.80/lbs
Total Gross Income: $536,558
Pilot Pay: $1,483
Total Expenses: $58,312
Total Revenue: $450,136
Average Revenue: $76,651.11